sensor_id;sensor_type;location;lat;lon;timestamp;temperature;humidity
75683;HTU21D;64295;44.772;39.872;2023-07-13T00:01:51;18.25;65.03
75683;HTU21D;64295;44.772;39.872;2023-07-13T00:04:18;18.23;65.08
75683;HTU21D;64295;44.772;39.872;2023-07-13T00:06:45;18.22;65.13
75683;HTU21D;64295;44.772;39.872;2023-07-13T00:09:13;18.20;65.15
75683;HTU21D;64295;44.772;39.872;2023-07-13T00:11:40;18.15;65.24
75683;HTU21D;64295;44.772;39.872;2023-07-13T00:14:07;18.14;65.30
75683;HTU21D;64295;44.772;39.872;2023-07-13T00:16:35;18.11;65.33
75683;HTU21D;64295;44.772;39.872;2023-07-13T00:19:01;18.10;65.33
75683;HTU21D;64295;44.772;39.872;2023-07-13T00:21:28;18.10;65.30
75683;HTU21D;64295;44.772;39.872;2023-07-13T00:23:53;18.09;65.32
75683;HTU21D;64295;44.772;39.872;2023-07-13T00:26:19;18.09;65.29
75683;HTU21D;64295;44.772;39.872;2023-07-13T00:28:45;18.11;65.21
75683;HTU21D;64295;44.772;39.872;2023-07-13T00:31:12;18.08;65.21
75683;HTU21D;64295;44.772;39.872;2023-07-13T00:33:40;18.07;65.21
75683;HTU21D;64295;44.772;39.872;2023-07-13T00:36:09;18.09;65.16
75683;HTU21D;64295;44.772;39.872;2023-07-13T00:38:35;18.09;65.13
75683;HTU21D;64295;44.772;39.872;2023-07-13T00:41:03;18.07;65.12
75683;HTU21D;64295;44.772;39.872;2023-07-13T00:43:30;18.08;65.14
75683;HTU21D;64295;44.772;39.872;2023-07-13T00:48:25;18.08;65.17
75683;HTU21D;64295;44.772;39.872;2023-07-13T00:50:55;18.06;65.21
75683;HTU21D;64295;44.772;39.872;2023-07-13T00:53:24;18.05;65.24
75683;HTU21D;64295;44.772;39.872;2023-07-13T00:55:53;18.00;65.33
75683;HTU21D;64295;44.772;39.872;2023-07-13T00:58:22;17.99;65.41
75683;HTU21D;64295;44.772;39.872;2023-07-13T01:00:48;17.94;65.52
75683;HTU21D;64295;44.772;39.872;2023-07-13T01:03:15;17.89;65.64
75683;HTU21D;64295;44.772;39.872;2023-07-13T01:05:41;17.84;65.72
75683;HTU21D;64295;44.772;39.872;2023-07-13T01:08:07;17.80;65.80
75683;HTU21D;64295;44.772;39.872;2023-07-13T01:10:33;17.78;65.83
75683;HTU21D;64295;44.772;39.872;2023-07-13T01:13:10;17.74;65.90
75683;HTU21D;64295;44.772;39.872;2023-07-13T01:15:45;17.73;65.91
75683;HTU21D;64295;44.772;39.872;2023-07-13T01:18:16;17.72;65.93
75683;HTU21D;64295;44.772;39.872;2023-07-13T01:21:01;17.66;66.00
75683;HTU21D;64295;44.772;39.872;2023-07-13T01:23:28;17.63;66.03
75683;HTU21D;64295;44.772;39.872;2023-07-13T01:25:55;17.61;66.06
75683;HTU21D;64295;44.772;39.872;2023-07-13T01:28:23;17.59;66.07
75683;HTU21D;64295;44.772;39.872;2023-07-13T01:30:54;17.58;66.10
75683;HTU21D;64295;44.772;39.872;2023-07-13T01:33:22;17.55;66.14
75683;HTU21D;64295;44.772;39.872;2023-07-13T01:35:49;17.53;66.14
75683;HTU21D;64295;44.772;39.872;2023-07-13T01:38:19;17.51;66.20
75683;HTU21D;64295;44.772;39.872;2023-07-13T01:40:46;17.50;66.21
75683;HTU21D;64295;44.772;39.872;2023-07-13T01:43:12;17.48;66.27
75683;HTU21D;64295;44.772;39.872;2023-07-13T01:45:38;17.46;66.30
75683;HTU21D;64295;44.772;39.872;2023-07-13T01:48:04;17.43;66.33
75683;HTU21D;64295;44.772;39.872;2023-07-13T01:50:33;17.38;66.43
75683;HTU21D;64295;44.772;39.872;2023-07-13T01:52:59;17.33;66.52
75683;HTU21D;64295;44.772;39.872;2023-07-13T01:55:24;17.32;66.55
75683;HTU21D;64295;44.772;39.872;2023-07-13T01:57:50;17.28;66.61
75683;HTU21D;64295;44.772;39.872;2023-07-13T02:00:17;17.26;66.62
75683;HTU21D;64295;44.772;39.872;2023-07-13T02:02:46;17.24;66.66
75683;HTU21D;64295;44.772;39.872;2023-07-13T02:05:13;17.23;66.72
75683;HTU21D;64295;44.772;39.872;2023-07-13T02:07:41;17.20;66.75
75683;HTU21D;64295;44.772;39.872;2023-07-13T02:10:08;17.18;66.81
75683;HTU21D;64295;44.772;39.872;2023-07-13T02:12:34;17.15;66.85
75683;HTU21D;64295;44.772;39.872;2023-07-13T02:15:00;17.11;66.93
75683;HTU21D;64295;44.772;39.872;2023-07-13T02:17:26;17.10;66.98
75683;HTU21D;64295;44.772;39.872;2023-07-13T02:19:53;17.09;66.98
75683;HTU21D;64295;44.772;39.872;2023-07-13T02:22:20;17.09;66.96
75683;HTU21D;64295;44.772;39.872;2023-07-13T02:24:46;17.11;66.88
75683;HTU21D;64295;44.772;39.872;2023-07-13T02:27:11;17.15;66.78
75683;HTU21D;64295;44.772;39.872;2023-07-13T02:29:37;17.20;66.68
75683;HTU21D;64295;44.772;39.872;2023-07-13T02:32:04;17.22;66.64
75683;HTU21D;64295;44.772;39.872;2023-07-13T02:34:29;17.22;66.63
75683;HTU21D;64295;44.772;39.872;2023-07-13T02:36:55;17.22;66.65
75683;HTU21D;64295;44.772;39.872;2023-07-13T02:39:21;17.22;66.64
75683;HTU21D;64295;44.772;39.872;2023-07-13T02:41:47;17.25;66.60
75683;HTU21D;64295;44.772;39.872;2023-07-13T02:44:14;17.28;66.56
75683;HTU21D;64295;44.772;39.872;2023-07-13T02:46:40;17.33;66.53
75683;HTU21D;64295;44.772;39.872;2023-07-13T02:49:07;17.37;66.46
75683;HTU21D;64295;44.772;39.872;2023-07-13T02:51:33;17.39;66.49
75683;HTU21D;64295;44.772;39.872;2023-07-13T02:54:04;17.40;66.53
75683;HTU21D;64295;44.772;39.872;2023-07-13T02:56:31;17.45;66.48
75683;HTU21D;64295;44.772;39.872;2023-07-13T02:58:58;17.46;66.42
75683;HTU21D;64295;44.772;39.872;2023-07-13T03:01:24;17.46;66.37
75683;HTU21D;64295;44.772;39.872;2023-07-13T03:03:51;17.49;66.36
75683;HTU21D;64295;44.772;39.872;2023-07-13T03:06:19;17.53;66.28
75683;HTU21D;64295;44.772;39.872;2023-07-13T03:08:50;17.61;66.17
75683;HTU21D;64295;44.772;39.872;2023-07-13T03:11:20;17.65;66.12
75683;HTU21D;64295;44.772;39.872;2023-07-13T03:13:52;17.70;66.04
75683;HTU21D;64295;44.772;39.872;2023-07-13T03:16:20;17.75;65.97
75683;HTU21D;64295;44.772;39.872;2023-07-13T03:18:48;17.78;65.95
75683;HTU21D;64295;44.772;39.872;2023-07-13T03:21:15;17.81;65.93
75683;HTU21D;64295;44.772;39.872;2023-07-13T03:23:42;17.88;65.89
75683;HTU21D;64295;44.772;39.872;2023-07-13T03:26:13;17.92;65.83
75683;HTU21D;64295;44.772;39.872;2023-07-13T03:28:41;17.98;65.75
75683;HTU21D;64295;44.772;39.872;2023-07-13T03:31:14;18.06;65.63
75683;HTU21D;64295;44.772;39.872;2023-07-13T03:33:41;18.14;65.51
75683;HTU21D;64295;44.772;39.872;2023-07-13T03:36:13;18.23;65.43
75683;HTU21D;64295;44.772;39.872;2023-07-13T03:38:39;18.32;65.31
75683;HTU21D;64295;44.772;39.872;2023-07-13T03:41:06;18.40;65.28
75683;HTU21D;64295;44.772;39.872;2023-07-13T03:43:32;18.46;65.25
75683;HTU21D;64295;44.772;39.872;2023-07-13T03:45:57;18.52;65.19
75683;HTU21D;64295;44.772;39.872;2023-07-13T03:48:23;18.58;65.14
75683;HTU21D;64295;44.772;39.872;2023-07-13T03:50:50;18.65;65.11
75683;HTU21D;64295;44.772;39.872;2023-07-13T03:53:15;18.72;65.04
75683;HTU21D;64295;44.772;39.872;2023-07-13T03:55:42;18.80;64.95
75683;HTU21D;64295;44.772;39.872;2023-07-13T04:00:55;19.00;64.76
75683;HTU21D;64295;44.772;39.872;2023-07-13T04:03:21;19.07;64.66
75683;HTU21D;64295;44.772;39.872;2023-07-13T04:05:47;19.16;64.57
75683;HTU21D;64295;44.772;39.872;2023-07-13T04:08:13;19.25;64.52
75683;HTU21D;64295;44.772;39.872;2023-07-13T04:10:39;19.32;64.43
75683;HTU21D;64295;44.772;39.872;2023-07-13T04:13:05;19.43;64.32
75683;HTU21D;64295;44.772;39.872;2023-07-13T04:15:32;19.47;64.23
75683;HTU21D;64295;44.772;39.872;2023-07-13T04:17:58;19.53;64.14
75683;HTU21D;64295;44.772;39.872;2023-07-13T04:20:25;19.60;64.03
75683;HTU21D;64295;44.772;39.872;2023-07-13T04:22:52;19.67;63.93
75683;HTU21D;64295;44.772;39.872;2023-07-13T04:25:21;19.71;63.92
75683;HTU21D;64295;44.772;39.872;2023-07-13T04:27:47;19.75;63.80
75683;HTU21D;64295;44.772;39.872;2023-07-13T04:30:13;19.81;63.75
75683;HTU21D;64295;44.772;39.872;2023-07-13T04:32:39;19.91;63.66
75683;HTU21D;64295;44.772;39.872;2023-07-13T04:35:05;20.01;63.52
75683;HTU21D;64295;44.772;39.872;2023-07-13T04:37:31;20.07;63.41
75683;HTU21D;64295;44.772;39.872;2023-07-13T04:39:57;20.09;63.39
75683;HTU21D;64295;44.772;39.872;2023-07-13T04:42:23;20.17;63.31
75683;HTU21D;64295;44.772;39.872;2023-07-13T04:44:50;20.28;63.14
75683;HTU21D;64295;44.772;39.872;2023-07-13T04:47:16;20.41;62.89
75683;HTU21D;64295;44.772;39.872;2023-07-13T04:49:42;20.48;62.77
75683;HTU21D;64295;44.772;39.872;2023-07-13T04:52:08;20.57;62.62
75683;HTU21D;64295;44.772;39.872;2023-07-13T04:54:35;20.61;62.52
75683;HTU21D;64295;44.772;39.872;2023-07-13T04:57:01;20.68;62.43
75683;HTU21D;64295;44.772;39.872;2023-07-13T04:59:27;20.78;62.23
75683;HTU21D;64295;44.772;39.872;2023-07-13T05:01:53;20.84;62.00
75683;HTU21D;64295;44.772;39.872;2023-07-13T05:04:19;20.88;61.91
75683;HTU21D;64295;44.772;39.872;2023-07-13T05:06:45;20.95;61.76
75683;HTU21D;64295;44.772;39.872;2023-07-13T05:09:11;21.03;61.57
75683;HTU21D;64295;44.772;39.872;2023-07-13T05:11:38;21.08;61.44
75683;HTU21D;64295;44.772;39.872;2023-07-13T05:14:04;21.18;61.24
75683;HTU21D;64295;44.772;39.872;2023-07-13T05:16:29;21.25;61.07
75683;HTU21D;64295;44.772;39.872;2023-07-13T05:18:55;21.32;60.89
75683;HTU21D;64295;44.772;39.872;2023-07-13T05:21:21;21.36;60.80
75683;HTU21D;64295;44.772;39.872;2023-07-13T05:23:47;21.44;60.60
75683;HTU21D;64295;44.772;39.872;2023-07-13T05:26:13;21.49;60.40
75683;HTU21D;64295;44.772;39.872;2023-07-13T05:28:39;21.53;60.30
75683;HTU21D;64295;44.772;39.872;2023-07-13T05:31:07;21.59;60.18
75683;HTU21D;64295;44.772;39.872;2023-07-13T05:33:33;21.69;60.04
75683;HTU21D;64295;44.772;39.872;2023-07-13T05:35:59;21.76;59.94
75683;HTU21D;64295;44.772;39.872;2023-07-13T05:38:26;21.87;59.82
75683;HTU21D;64295;44.772;39.872;2023-07-13T05:40:54;21.96;59.64
75683;HTU21D;64295;44.772;39.872;2023-07-13T05:43:21;22.06;59.50
75683;HTU21D;64295;44.772;39.872;2023-07-13T05:45:48;22.17;59.25
75683;HTU21D;64295;44.772;39.872;2023-07-13T05:48:14;22.24;59.09
75683;HTU21D;64295;44.772;39.872;2023-07-13T05:50:40;22.34;58.87
75683;HTU21D;64295;44.772;39.872;2023-07-13T05:53:06;22.44;58.69
75683;HTU21D;64295;44.772;39.872;2023-07-13T05:55:32;22.57;58.51
75683;HTU21D;64295;44.772;39.872;2023-07-13T05:58:00;22.69;58.16
75683;HTU21D;64295;44.772;39.872;2023-07-13T06:00:26;22.78;58.06
75683;HTU21D;64295;44.772;39.872;2023-07-13T06:02:52;22.83;57.80
75683;HTU21D;64295;44.772;39.872;2023-07-13T06:05:19;22.90;57.42
75683;HTU21D;64295;44.772;39.872;2023-07-13T06:07:45;22.95;57.32
75683;HTU21D;64295;44.772;39.872;2023-07-13T06:10:10;23.03;57.22
75683;HTU21D;64295;44.772;39.872;2023-07-13T06:12:36;23.12;57.09
75683;HTU21D;64295;44.772;39.872;2023-07-13T06:15:03;23.24;56.81
75683;HTU21D;64295;44.772;39.872;2023-07-13T06:17:29;23.32;56.29
75683;HTU21D;64295;44.772;39.872;2023-07-13T06:19:55;23.42;56.34
75683;HTU21D;64295;44.772;39.872;2023-07-13T06:22:21;23.56;55.96
75683;HTU21D;64295;44.772;39.872;2023-07-13T06:24:47;23.62;55.70
75683;HTU21D;64295;44.772;39.872;2023-07-13T06:27:12;23.65;55.73
75683;HTU21D;64295;44.772;39.872;2023-07-13T06:29:38;23.74;55.78
75683;HTU21D;64295;44.772;39.872;2023-07-13T06:32:05;23.91;55.37
75683;HTU21D;64295;44.772;39.872;2023-07-13T06:34:31;24.00;54.99
75683;HTU21D;64295;44.772;39.872;2023-07-13T06:36:57;24.09;54.76
75683;HTU21D;64295;44.772;39.872;2023-07-13T06:39:23;24.15;54.52
75683;HTU21D;64295;44.772;39.872;2023-07-13T06:41:49;24.25;54.12
75683;HTU21D;64295;44.772;39.872;2023-07-13T06:44:17;24.32;54.04
75683;HTU21D;64295;44.772;39.872;2023-07-13T06:46:43;24.40;53.88
75683;HTU21D;64295;44.772;39.872;2023-07-13T06:49:09;24.50;53.72
75683;HTU21D;64295;44.772;39.872;2023-07-13T06:51:36;24.60;53.27
75683;HTU21D;64295;44.772;39.872;2023-07-13T06:54:03;24.66;52.80
75683;HTU21D;64295;44.772;39.872;2023-07-13T06:56:28;24.78;52.85
75683;HTU21D;64295;44.772;39.872;2023-07-13T06:58:54;24.89;52.53
75683;HTU21D;64295;44.772;39.872;2023-07-13T07:01:20;24.93;51.49
75683;HTU21D;64295;44.772;39.872;2023-07-13T07:03:46;25.00;51.75
75683;HTU21D;64295;44.772;39.872;2023-07-13T07:06:17;25.13;50.92
75683;HTU21D;64295;44.772;39.872;2023-07-13T07:08:44;25.18;50.67
75683;HTU21D;64295;44.772;39.872;2023-07-13T07:11:17;25.22;50.19
75683;HTU21D;64295;44.772;39.872;2023-07-13T07:13:43;25.31;50.23
75683;HTU21D;64295;44.772;39.872;2023-07-13T07:16:09;25.43;49.82
75683;HTU21D;64295;44.772;39.872;2023-07-13T07:18:35;25.51;49.27
75683;HTU21D;64295;44.772;39.872;2023-07-13T07:21:01;25.61;49.25
75683;HTU21D;64295;44.772;39.872;2023-07-13T07:23:28;25.64;48.54
75683;HTU21D;64295;44.772;39.872;2023-07-13T07:25:54;25.74;48.02
75683;HTU21D;64295;44.772;39.872;2023-07-13T07:28:20;25.80;47.74
75683;HTU21D;64295;44.772;39.872;2023-07-13T07:30:47;25.90;48.13
75683;HTU21D;64295;44.772;39.872;2023-07-13T07:33:14;26.03;47.63
75683;HTU21D;64295;44.772;39.872;2023-07-13T07:35:40;26.09;47.35
75683;HTU21D;64295;44.772;39.872;2023-07-13T07:38:06;26.19;47.10
75683;HTU21D;64295;44.772;39.872;2023-07-13T07:40:37;26.24;46.83
75683;HTU21D;64295;44.772;39.872;2023-07-13T07:43:03;26.27;46.70
75683;HTU21D;64295;44.772;39.872;2023-07-13T07:45:29;26.32;45.86
75683;HTU21D;64295;44.772;39.872;2023-07-13T07:47:56;26.38;46.17
75683;HTU21D;64295;44.772;39.872;2023-07-13T07:50:25;26.47;46.22
75683;HTU21D;64295;44.772;39.872;2023-07-13T07:52:51;26.52;45.67
75683;HTU21D;64295;44.772;39.872;2023-07-13T07:55:17;26.64;45.87
75683;HTU21D;64295;44.772;39.872;2023-07-13T07:57:43;26.76;45.90
75683;HTU21D;64295;44.772;39.872;2023-07-13T08:00:09;26.84;45.49
75683;HTU21D;64295;44.772;39.872;2023-07-13T08:02:42;26.89;45.50
75683;HTU21D;64295;44.772;39.872;2023-07-13T08:05:09;26.95;45.46
75683;HTU21D;64295;44.772;39.872;2023-07-13T08:07:36;27.02;45.20
75683;HTU21D;64295;44.772;39.872;2023-07-13T08:10:03;27.07;44.50
75683;HTU21D;64295;44.772;39.872;2023-07-13T08:12:29;27.05;43.99
75683;HTU21D;64295;44.772;39.872;2023-07-13T08:14:55;27.07;44.14
75683;HTU21D;64295;44.772;39.872;2023-07-13T08:17:24;27.10;43.84
75683;HTU21D;64295;44.772;39.872;2023-07-13T08:19:50;27.15;43.98
75683;HTU21D;64295;44.772;39.872;2023-07-13T08:22:17;27.24;43.48
75683;HTU21D;64295;44.772;39.872;2023-07-13T08:24:43;27.22;43.40
75683;HTU21D;64295;44.772;39.872;2023-07-13T08:27:11;27.35;43.66
75683;HTU21D;64295;44.772;39.872;2023-07-13T08:29:37;27.43;42.84
75683;HTU21D;64295;44.772;39.872;2023-07-13T08:32:05;27.44;42.97
75683;HTU21D;64295;44.772;39.872;2023-07-13T08:34:35;27.53;43.03
75683;HTU21D;64295;44.772;39.872;2023-07-13T08:37:02;27.70;43.06
75683;HTU21D;64295;44.772;39.872;2023-07-13T08:39:30;27.74;42.66
75683;HTU21D;64295;44.772;39.872;2023-07-13T08:42:00;27.78;42.92
75683;HTU21D;64295;44.772;39.872;2023-07-13T08:44:44;27.86;42.94
75683;HTU21D;64295;44.772;39.872;2023-07-13T08:47:15;27.90;42.49
75683;HTU21D;64295;44.772;39.872;2023-07-13T08:49:42;27.90;43.03
75683;HTU21D;64295;44.772;39.872;2023-07-13T08:52:37;28.03;42.76
75683;HTU21D;64295;44.772;39.872;2023-07-13T08:55:26;28.03;42.38
75683;HTU21D;64295;44.772;39.872;2023-07-13T08:58:05;28.06;41.49
75683;HTU21D;64295;44.772;39.872;2023-07-13T09:00:48;28.03;41.29
75683;HTU21D;64295;44.772;39.872;2023-07-13T09:03:25;28.02;41.49
75683;HTU21D;64295;44.772;39.872;2023-07-13T09:05:58;28.08;40.65
75683;HTU21D;64295;44.772;39.872;2023-07-13T09:08:48;28.14;40.46
75683;HTU21D;64295;44.772;39.872;2023-07-13T09:14:22;28.09;39.60
75683;HTU21D;64295;44.772;39.872;2023-07-13T09:16:51;28.03;39.53
75683;HTU21D;64295;44.772;39.872;2023-07-13T09:19:30;28.06;39.60
75683;HTU21D;64295;44.772;39.872;2023-07-13T09:21:59;28.14;39.52
75683;HTU21D;64295;44.772;39.872;2023-07-13T09:27:08;28.30;39.65
75683;HTU21D;64295;44.772;39.872;2023-07-13T09:29:37;28.40;39.68
75683;HTU21D;64295;44.772;39.872;2023-07-13T09:32:10;28.41;39.78
75683;HTU21D;64295;44.772;39.872;2023-07-13T09:34:38;28.46;39.91
75683;HTU21D;64295;44.772;39.872;2023-07-13T09:37:04;28.59;40.01
75683;HTU21D;64295;44.772;39.872;2023-07-13T09:39:37;28.67;40.15
75683;HTU21D;64295;44.772;39.872;2023-07-13T09:44:37;28.71;39.50
75683;HTU21D;64295;44.772;39.872;2023-07-13T09:47:18;28.77;39.56
75683;HTU21D;64295;44.772;39.872;2023-07-13T09:49:45;28.75;38.91
75683;HTU21D;64295;44.772;39.872;2023-07-13T09:52:13;28.67;38.55
75683;HTU21D;64295;44.772;39.872;2023-07-13T09:54:43;28.62;38.34
75683;HTU21D;64295;44.772;39.872;2023-07-13T09:57:16;28.69;38.89
75683;HTU21D;64295;44.772;39.872;2023-07-13T09:59:52;28.80;39.10
75683;HTU21D;64295;44.772;39.872;2023-07-13T10:02:30;28.97;39.17
75683;HTU21D;64295;44.772;39.872;2023-07-13T10:04:59;29.07;38.85
75683;HTU21D;64295;44.772;39.872;2023-07-13T10:07:26;29.12;38.90
75683;HTU21D;64295;44.772;39.872;2023-07-13T10:09:56;29.21;38.31
75683;HTU21D;64295;44.772;39.872;2023-07-13T10:12:23;29.13;37.59
75683;HTU21D;64295;44.772;39.872;2023-07-13T10:14:54;29.08;37.88
75683;HTU21D;64295;44.772;39.872;2023-07-13T10:17:31;29.09;37.70
75683;HTU21D;64295;44.772;39.872;2023-07-13T10:20:04;29.08;37.26
75683;HTU21D;64295;44.772;39.872;2023-07-13T10:22:39;29.00;37.30
75683;HTU21D;64295;44.772;39.872;2023-07-13T10:25:19;29.02;37.23
75683;HTU21D;64295;44.772;39.872;2023-07-13T10:27:47;29.06;36.85
75683;HTU21D;64295;44.772;39.872;2023-07-13T10:32:46;29.14;36.68
75683;HTU21D;64295;44.772;39.872;2023-07-13T10:35:14;29.13;36.56
75683;HTU21D;64295;44.772;39.872;2023-07-13T10:37:55;29.04;36.58
75683;HTU21D;64295;44.772;39.872;2023-07-13T10:40:37;29.03;37.24
75683;HTU21D;64295;44.772;39.872;2023-07-13T10:43:13;29.16;37.51
75683;HTU21D;64295;44.772;39.872;2023-07-13T10:45:41;29.24;37.40
75683;HTU21D;64295;44.772;39.872;2023-07-13T10:48:12;29.33;37.36
75683;HTU21D;64295;44.772;39.872;2023-07-13T10:50:40;29.41;37.17
75683;HTU21D;64295;44.772;39.872;2023-07-13T10:58:39;29.33;37.27
75683;HTU21D;64295;44.772;39.872;2023-07-13T11:01:07;29.39;37.49
75683;HTU21D;64295;44.772;39.872;2023-07-13T11:03:59;29.56;37.54
75683;HTU21D;64295;44.772;39.872;2023-07-13T11:06:30;29.57;37.10
75683;HTU21D;64295;44.772;39.872;2023-07-13T11:11:47;29.48;36.56
75683;HTU21D;64295;44.772;39.872;2023-07-13T11:14:30;29.41;36.85
75683;HTU21D;64295;44.772;39.872;2023-07-13T11:16:57;29.46;36.53
75683;HTU21D;64295;44.772;39.872;2023-07-13T11:22:16;29.41;36.59
75683;HTU21D;64295;44.772;39.872;2023-07-13T11:25:02;29.51;36.35
75683;HTU21D;64295;44.772;39.872;2023-07-13T11:27:52;29.57;36.41
75683;HTU21D;64295;44.772;39.872;2023-07-13T11:35:33;29.42;35.97
75683;HTU21D;64295;44.772;39.872;2023-07-13T11:38:02;29.52;35.61
75683;HTU21D;64295;44.772;39.872;2023-07-13T11:40:30;29.45;35.63
75683;HTU21D;64295;44.772;39.872;2023-07-13T11:43:00;29.43;35.73
75683;HTU21D;64295;44.772;39.872;2023-07-13T11:45:27;29.48;35.92
75683;HTU21D;64295;44.772;39.872;2023-07-13T11:47:54;29.60;35.85
75683;HTU21D;64295;44.772;39.872;2023-07-13T11:50:35;29.57;35.89
75683;HTU21D;64295;44.772;39.872;2023-07-13T11:58:01;29.82;36.39
75683;HTU21D;64295;44.772;39.872;2023-07-13T12:01:37;29.71;35.70
75683;HTU21D;64295;44.772;39.872;2023-07-13T12:04:52;29.57;35.43
75683;HTU21D;64295;44.772;39.872;2023-07-13T12:07:19;29.49;35.29
75683;HTU21D;64295;44.772;39.872;2023-07-13T12:09:45;29.45;35.18
75683;HTU21D;64295;44.772;39.872;2023-07-13T12:12:13;29.38;35.47
75683;HTU21D;64295;44.772;39.872;2023-07-13T12:14:39;29.39;35.04
75683;HTU21D;64295;44.772;39.872;2023-07-13T12:17:17;29.34;35.44
75683;HTU21D;64295;44.772;39.872;2023-07-13T12:19:44;29.32;35.13
75683;HTU21D;64295;44.772;39.872;2023-07-13T12:22:12;29.33;35.40
75683;HTU21D;64295;44.772;39.872;2023-07-13T12:24:43;29.34;35.37
75683;HTU21D;64295;44.772;39.872;2023-07-13T12:27:36;29.34;35.05
75683;HTU21D;64295;44.772;39.872;2023-07-13T12:30:15;29.33;34.92
75683;HTU21D;64295;44.772;39.872;2023-07-13T12:35:30;29.36;35.22
75683;HTU21D;64295;44.772;39.872;2023-07-13T12:38:01;29.36;35.15
75683;HTU21D;64295;44.772;39.872;2023-07-13T12:40:32;29.48;35.30
75683;HTU21D;64295;44.772;39.872;2023-07-13T12:42:59;29.51;35.12
75683;HTU21D;64295;44.772;39.872;2023-07-13T12:45:26;29.53;35.28
75683;HTU21D;64295;44.772;39.872;2023-07-13T12:48:19;29.47;34.93
75683;HTU21D;64295;44.772;39.872;2023-07-13T12:50:47;29.33;35.09
75683;HTU21D;64295;44.772;39.872;2023-07-13T12:53:19;29.38;35.14
75683;HTU21D;64295;44.772;39.872;2023-07-13T12:55:48;29.34;34.89
75683;HTU21D;64295;44.772;39.872;2023-07-13T12:58:32;29.28;34.95
75683;HTU21D;64295;44.772;39.872;2023-07-13T13:01:02;29.27;35.06
75683;HTU21D;64295;44.772;39.872;2023-07-13T13:03:38;29.36;35.42
75683;HTU21D;64295;44.772;39.872;2023-07-13T13:08:46;29.50;35.40
75683;HTU21D;64295;44.772;39.872;2023-07-13T13:11:12;29.47;35.35
75683;HTU21D;64295;44.772;39.872;2023-07-13T13:13:42;29.42;35.48
75683;HTU21D;64295;44.772;39.872;2023-07-13T13:18:53;29.23;35.36
75683;HTU21D;64295;44.772;39.872;2023-07-13T13:21:20;29.24;35.55
75683;HTU21D;64295;44.772;39.872;2023-07-13T13:23:46;29.27;35.69
75683;HTU21D;64295;44.772;39.872;2023-07-13T13:26:14;29.23;35.56
75683;HTU21D;64295;44.772;39.872;2023-07-13T13:28:44;29.13;35.85
75683;HTU21D;64295;44.772;39.872;2023-07-13T13:31:11;29.17;36.02
75683;HTU21D;64295;44.772;39.872;2023-07-13T13:33:40;29.23;35.80
75683;HTU21D;64295;44.772;39.872;2023-07-13T13:36:19;29.16;35.82
75683;HTU21D;64295;44.772;39.872;2023-07-13T13:38:46;29.15;36.02
75683;HTU21D;64295;44.772;39.872;2023-07-13T13:41:14;29.16;36.05
75683;HTU21D;64295;44.772;39.872;2023-07-13T13:43:41;29.16;35.77
75683;HTU21D;64295;44.772;39.872;2023-07-13T13:46:19;29.07;35.85
75683;HTU21D;64295;44.772;39.872;2023-07-13T13:48:46;29.00;35.86
75683;HTU21D;64295;44.772;39.872;2023-07-13T13:51:18;28.97;35.79
75683;HTU21D;64295;44.772;39.872;2023-07-13T13:53:45;28.83;35.60
75683;HTU21D;64295;44.772;39.872;2023-07-13T13:56:12;28.71;35.83
75683;HTU21D;64295;44.772;39.872;2023-07-13T13:58:39;28.72;36.02
75683;HTU21D;64295;44.772;39.872;2023-07-13T14:01:17;28.76;35.85
75683;HTU21D;64295;44.772;39.872;2023-07-13T14:03:43;28.75;35.91
75683;HTU21D;64295;44.772;39.872;2023-07-13T14:06:14;28.72;35.73
75683;HTU21D;64295;44.772;39.872;2023-07-13T14:08:40;28.70;35.58
75683;HTU21D;64295;44.772;39.872;2023-07-13T14:11:14;28.62;35.47
75683;HTU21D;64295;44.772;39.872;2023-07-13T14:14:00;28.54;35.17
75683;HTU21D;64295;44.772;39.872;2023-07-13T14:16:32;28.52;34.71
75683;HTU21D;64295;44.772;39.872;2023-07-13T14:18:59;28.40;34.64
75683;HTU21D;64295;44.772;39.872;2023-07-13T14:21:27;28.28;34.73
75683;HTU21D;64295;44.772;39.872;2023-07-13T14:23:54;28.23;34.74
75683;HTU21D;64295;44.772;39.872;2023-07-13T14:26:22;28.18;34.95
75683;HTU21D;64295;44.772;39.872;2023-07-13T14:28:50;28.18;35.10
75683;HTU21D;64295;44.772;39.872;2023-07-13T14:31:17;28.21;35.23
75683;HTU21D;64295;44.772;39.872;2023-07-13T14:33:44;28.21;35.28
75683;HTU21D;64295;44.772;39.872;2023-07-13T14:36:29;28.17;35.52
75683;HTU21D;64295;44.772;39.872;2023-07-13T14:39:01;28.16;35.60
75683;HTU21D;64295;44.772;39.872;2023-07-13T14:41:31;28.13;35.79
75683;HTU21D;64295;44.772;39.872;2023-07-13T14:43:58;28.13;35.95
75683;HTU21D;64295;44.772;39.872;2023-07-13T14:46:31;28.12;36.16
75683;HTU21D;64295;44.772;39.872;2023-07-13T14:49:06;28.11;36.28
75683;HTU21D;64295;44.772;39.872;2023-07-13T14:51:34;28.09;36.56
75683;HTU21D;64295;44.772;39.872;2023-07-13T14:54:02;28.08;36.75
75683;HTU21D;64295;44.772;39.872;2023-07-13T14:56:29;28.08;36.88
75683;HTU21D;64295;44.772;39.872;2023-07-13T14:58:55;28.09;37.00
75683;HTU21D;64295;44.772;39.872;2023-07-13T15:01:21;28.10;37.11
75683;HTU21D;64295;44.772;39.872;2023-07-13T15:03:50;28.09;37.26
75683;HTU21D;64295;44.772;39.872;2023-07-13T15:06:17;28.02;37.42
75683;HTU21D;64295;44.772;39.872;2023-07-13T15:08:45;27.98;37.69
75683;HTU21D;64295;44.772;39.872;2023-07-13T15:11:12;27.97;37.87
75683;HTU21D;64295;44.772;39.872;2023-07-13T15:13:39;27.91;38.04
75683;HTU21D;64295;44.772;39.872;2023-07-13T15:16:15;27.86;38.25
75683;HTU21D;64295;44.772;39.872;2023-07-13T15:18:42;27.81;38.39
75683;HTU21D;64295;44.772;39.872;2023-07-13T15:21:10;27.78;38.51
75683;HTU21D;64295;44.772;39.872;2023-07-13T15:23:40;27.76;38.64
75683;HTU21D;64295;44.772;39.872;2023-07-13T15:26:15;27.68;38.81
75683;HTU21D;64295;44.772;39.872;2023-07-13T15:29:09;27.61;38.98
75683;HTU21D;64295;44.772;39.872;2023-07-13T15:31:38;27.54;39.17
75683;HTU21D;64295;44.772;39.872;2023-07-13T15:34:11;27.45;39.30
75683;HTU21D;64295;44.772;39.872;2023-07-13T15:36:37;27.42;39.49
75683;HTU21D;64295;44.772;39.872;2023-07-13T15:39:03;27.39;39.63
75683;HTU21D;64295;44.772;39.872;2023-07-13T15:41:29;27.39;39.76
75683;HTU21D;64295;44.772;39.872;2023-07-13T15:43:58;27.38;39.90
75683;HTU21D;64295;44.772;39.872;2023-07-13T15:46:26;27.35;40.01
75683;HTU21D;64295;44.772;39.872;2023-07-13T15:48:53;27.27;40.17
75683;HTU21D;64295;44.772;39.872;2023-07-13T15:51:28;27.21;40.36
75683;HTU21D;64295;44.772;39.872;2023-07-13T15:54:03;27.17;40.48
75683;HTU21D;64295;44.772;39.872;2023-07-13T15:56:36;27.09;40.62
75683;HTU21D;64295;44.772;39.872;2023-07-13T15:59:03;26.98;40.84
75683;HTU21D;64295;44.772;39.872;2023-07-13T16:01:30;26.92;41.06